ESUS weather

Åsele Airport
Åsele, Västerbottens län, Sweden

Public forecast

Using degrees Celsius for public forecast. Weather courtesy of forecast.io.

METAR (pilot weather report)

Closest report is Vilhelmina Airport, 27.7 nm (51.3 km) NNW. Retrieved 2019/08/21 14:20 UTC (30 minutes ago):

ESNV 211420Z 28014KT 9999 +RA FEW032 SCT064 BKN092 12/08 Q1017 RERA

TAF (pilot weather forecast)

Forecast is more than 12 hours old.

Closest forecast is Örnsköldsvik Airport, 64.0 nm (118.6 km) SE. Retrieved 2015/08/24 09:33 UTC (4 years ago):

TAF ESNO 240830Z 2409/2424 18004KT CAVOK